Keezletown, VA (22832)

10:31 PM EST on February 07, 2016 (GMT -0500)
Indian Trail Rd 1.5mi N Keezletown | | Change Station
CLOSE
Current Station
Personal Weather Station
Location: Keezletown, VA
Elevation: 1424 ft
Nearby Weather Stations

Elev 1424 ft 38.44 °N, 78.80 °W | Updated 6 seconds ago

Clear
Clear
24.8 °F
Feels Like 25 °F
N
0.0
Wind Variable Wind from NE

Today
High -- | Low -- °F
--% Chance of Precip.
Yesterday
High -- | Low -- °F
Precip. -- in
Pressure 29.91 in
Visibility 10.0 miles
Clouds Clear
Windchill 25 °F
Dew Point 22 °F
Humidity 89%
Rainfall 0.00 in
Snow Depth Not available.
7:15 AM 5:43 PM
Waning Crescent, 0% visible
METAR KSHD 080315Z AUTO 00000KT 10SM CLR M01/M03 A2991 RMK AO2 T10081034
Pressure 29.91 in
Visibility 10.0 miles
Clouds Clear
Windchill 25 °F
Dew Point 22 °F
Humidity 89%
Rainfall 0.00 in
Snow Depth Not available.
7:15 AM 5:43 PM
Waning Crescent, 0% visible
METAR KSHD 080315Z AUTO 00000KT 10SM CLR M01/M03 A2991 RMK AO2 T10081034

10-Day Weather Forecast

Almanac

Astronomy

Feb. 07, 2016 Rise Set
Actual Time
Civil Twilight
Nautical Twilight
Astronomical Twilight
Moon
Length of Visible Light
Length of Day
Tomorrow will be .
, % of the Moon is Illuminated

Today's Extremes

State Highs State Lows

Community

WunderPhotos

Upload Photos

1,891,373 photos uploaded!

WunderBlog® & News

Nearby

Air Quality

  Air Quality AQ Index Pollutant
Not available.

Snow Depth

Station Depth Elevation

Earthquake Activity

City Distance Mag. Time & Date
Minimum magnitude displayed is 2.5.

Coastal Water Temperatures

Place Temperature

Stations

Nearby Weather Stations

Station Location Temp. Windchill Dew Point Humidity Wind Precip. Elev Updated Type
                   

Watches & Warnings

There are currently no watches in effect.